createdAt,value
2023-01-19T00:01:31.621Z,82.58
2023-01-19T00:03:59.366Z,83.71
2023-01-19T00:06:26.987Z,83.72
2023-01-19T00:08:54.458Z,82.92
2023-01-19T00:11:21.940Z,83.01
2023-01-19T00:13:50.940Z,84.12
2023-01-19T00:16:23.652Z,84.48
2023-01-19T00:18:52.602Z,84.13
2023-01-19T00:21:21.567Z,84.62
2023-01-19T00:23:51.088Z,82.78
2023-01-19T00:26:19.294Z,83.63
2023-01-19T00:28:46.949Z,83.14
2023-01-19T00:31:14.480Z,83.15
2023-01-19T00:33:43.334Z,82.86
2023-01-19T00:36:11.245Z,82.31
2023-01-19T00:38:39.034Z,83.96
2023-01-19T00:41:06.953Z,82.74
2023-01-19T00:43:34.406Z,81.39
2023-01-19T00:46:01.919Z,82.50
2023-01-19T00:48:30.719Z,82.70
2023-01-19T00:51:00.075Z,81.56
2023-01-19T00:53:29.106Z,81.53
2023-01-19T00:55:56.642Z,81.54
2023-01-19T00:58:24.113Z,81.78
2023-01-19T01:00:54.579Z,81.20
2023-01-19T01:03:28.088Z,81.09
2023-01-19T01:05:55.813Z,81.25
2023-01-19T01:08:25.112Z,81.30
2023-01-19T01:10:52.941Z,81.94
2023-01-19T01:13:22.441Z,81.19
2023-01-19T01:15:52.665Z,81.77
2023-01-19T01:18:20.924Z,81.47
2023-01-19T01:20:48.701Z,81.93
2023-01-19T01:23:16.477Z,81.06
2023-01-19T01:25:46.620Z,81.15
2023-01-19T01:28:14.088Z,81.13
2023-01-19T01:30:43.296Z,81.70
2023-01-19T01:33:11.696Z,81.59
2023-01-19T01:35:39.700Z,82.06
2023-01-19T01:38:07.820Z,81.90
2023-01-19T01:40:35.433Z,81.56
2023-01-19T01:43:04.435Z,81.88
2023-01-19T01:45:34.301Z,81.89
2023-01-19T01:48:04.825Z,81.56
2023-01-19T01:50:34.155Z,81.81
2023-01-19T01:53:06.431Z,81.75
2023-01-19T01:55:36.297Z,81.84
2023-01-19T01:58:06.113Z,82.21
2023-01-19T02:00:53.752Z,81.87
2023-01-19T02:03:21.257Z,81.92
2023-01-19T02:05:48.781Z,81.74
2023-01-19T02:08:37.553Z,81.91
2023-01-19T02:11:23.451Z,82.19
2023-01-19T02:13:53.992Z,82.14
2023-01-19T02:16:21.559Z,81.98
2023-01-19T02:18:49.056Z,82.07
2023-01-19T02:21:21.093Z,81.94
2023-01-19T02:23:51.200Z,82.33
2023-01-19T02:26:20.805Z,81.94
2023-01-19T02:28:51.271Z,82.57
2023-01-19T02:31:19.271Z,82.01
2023-01-19T02:33:46.865Z,82.24
2023-01-19T02:36:15.971Z,82.43
2023-01-19T02:38:45.827Z,82.02
2023-01-19T02:41:18.139Z,82.12
2023-01-19T02:43:46.479Z,81.99
2023-01-19T02:46:15.574Z,82.50
2023-01-19T02:48:43.339Z,81.90
2023-01-19T02:51:13.488Z,81.55
2023-01-19T02:53:54.279Z,81.64
2023-01-19T02:56:36.983Z,82.01
2023-01-19T02:59:07.761Z,81.90
2023-01-19T03:01:44.837Z,82.29
2023-01-19T03:04:15.932Z,82.08
2023-01-19T03:06:47.658Z,82.20
2023-01-19T03:09:22.380Z,81.99
2023-01-19T03:11:55.377Z,81.58
2023-01-19T03:14:24.707Z,81.31
2023-01-19T03:16:55.201Z,82.47
2023-01-19T03:19:24.908Z,81.93
2023-01-19T03:21:56.561Z,81.74
2023-01-19T03:24:25.831Z,81.99
2023-01-19T03:26:58.719Z,82.06
2023-01-19T03:29:28.564Z,81.13
2023-01-19T03:31:57.575Z,82.25
2023-01-19T03:34:25.191Z,81.98
2023-01-19T03:36:54.063Z,81.89
2023-01-19T03:39:24.093Z,81.87
2023-01-19T03:41:56.267Z,81.89
2023-01-19T03:44:24.854Z,81.79
2023-01-19T03:46:52.755Z,82.22
2023-01-19T03:49:20.568Z,82.13
2023-01-19T03:51:48.202Z,81.90
2023-01-19T03:54:15.699Z,81.61
2023-01-19T03:56:43.702Z,81.82
2023-01-19T03:59:12.548Z,81.64
2023-01-19T04:01:40.192Z,81.57
2023-01-19T04:04:07.741Z,82.06
2023-01-19T04:06:35.223Z,81.25
2023-01-19T04:09:02.780Z,81.92
2023-01-19T04:11:30.264Z,81.81
2023-01-19T04:13:58.555Z,81.68
2023-01-19T04:16:27.381Z,81.10
2023-01-19T04:18:54.870Z,82.39
2023-01-19T04:21:22.432Z,82.45
2023-01-19T04:23:50.607Z,82.49
2023-01-19T04:26:18.283Z,83.03
2023-01-19T04:28:46.009Z,82.32
2023-01-19T04:31:14.336Z,82.67
2023-01-19T04:33:43.203Z,82.30
2023-01-19T04:36:10.802Z,82.43
2023-01-19T04:38:38.462Z,82.35
2023-01-19T04:41:06.221Z,82.58
2023-01-19T04:43:33.784Z,82.48
2023-01-19T04:46:01.267Z,82.51
2023-01-19T04:48:28.850Z,82.57
2023-01-19T04:50:57.663Z,82.25
2023-01-19T04:53:25.211Z,82.54
2023-01-19T04:55:54.526Z,83.06
2023-01-19T04:58:22.121Z,82.64
2023-01-19T05:00:51.128Z,82.68
2023-01-19T05:03:19.271Z,82.29
2023-01-19T05:05:46.802Z,82.29
2023-01-19T05:08:15.674Z,82.31
2023-01-19T05:10:43.144Z,82.23
2023-01-19T05:13:10.629Z,82.43
2023-01-19T05:15:38.106Z,82.35
2023-01-19T05:18:05.618Z,83.23
2023-01-19T05:20:33.093Z,82.84
2023-01-19T05:23:01.080Z,82.00
2023-01-19T05:25:30.137Z,81.96
2023-01-19T05:27:57.605Z,82.60
2023-01-19T05:30:25.085Z,81.95
2023-01-19T05:32:52.609Z,82.88
2023-01-19T05:35:27.824Z,82.85
2023-01-19T05:37:59.020Z,82.32
2023-01-19T05:40:26.489Z,82.55
2023-01-19T05:42:55.275Z,82.33
2023-01-19T05:45:22.828Z,82.79
2023-01-19T05:47:50.928Z,82.33
2023-01-19T05:50:18.410Z,81.90
2023-01-19T05:52:45.893Z,81.77
2023-01-19T05:55:15.514Z,81.90
2023-01-19T05:57:43.331Z,82.33
2023-01-19T06:00:13.716Z,82.41
2023-01-19T06:02:41.263Z,82.66
2023-01-19T06:05:09.558Z,82.61
2023-01-19T06:07:37.034Z,82.98
2023-01-19T06:10:04.889Z,82.87
2023-01-19T06:12:33.127Z,82.97
2023-01-19T06:15:00.613Z,82.22
2023-01-19T06:17:29.442Z,82.44
2023-01-19T06:19:56.940Z,82.21
2023-01-19T06:22:24.565Z,82.37
2023-01-19T06:24:52.137Z,82.30
2023-01-19T06:27:19.620Z,82.19
2023-01-19T06:29:47.108Z,82.11
2023-01-19T06:32:14.568Z,82.59
2023-01-19T06:34:43.818Z,82.48
2023-01-19T06:37:12.171Z,82.26
2023-01-19T06:39:41.087Z,82.84
2023-01-19T06:42:09.046Z,82.67
2023-01-19T06:44:36.555Z,82.17
2023-01-19T06:47:15.670Z,82.05
2023-01-19T06:49:45.017Z,81.98
2023-01-19T06:52:14.108Z,82.24
2023-01-19T06:54:41.575Z,82.46
2023-01-19T06:57:09.060Z,81.86
2023-01-19T06:59:36.524Z,82.21
2023-01-19T07:02:26.279Z,82.52
2023-01-19T07:04:52.831Z,82.24
2023-01-19T07:07:20.332Z,82.51
2023-01-19T07:09:48.106Z,82.39
2023-01-19T07:12:15.667Z,82.29
2023-01-19T07:14:43.235Z,82.51
2023-01-19T07:17:10.907Z,82.18
2023-01-19T07:19:38.409Z,81.90
2023-01-19T07:22:07.269Z,82.10
2023-01-19T07:24:35.508Z,82.11
2023-01-19T07:27:03.031Z,80.82
2023-01-19T07:29:30.552Z,81.81
2023-01-19T07:31:58.078Z,82.35
2023-01-19T07:34:25.580Z,83.18
2023-01-19T07:36:53.106Z,82.89
2023-01-19T07:39:21.906Z,83.10
2023-01-19T07:41:49.585Z,84.02
2023-01-19T07:44:17.285Z,83.87
2023-01-19T07:46:44.965Z,83.76
2023-01-19T07:49:12.644Z,83.83
2023-01-19T07:51:40.187Z,84.10
2023-01-19T07:54:08.422Z,84.45
2023-01-19T07:56:37.326Z,84.37
2023-01-19T07:59:04.845Z,84.55
2023-01-19T08:01:32.439Z,84.04
2023-01-19T08:03:59.959Z,84.48
2023-01-19T08:06:32.611Z,83.83
2023-01-19T08:09:00.205Z,84.73
2023-01-19T08:11:27.723Z,84.68
2023-01-19T08:13:56.547Z,83.65
2023-01-19T08:16:24.215Z,84.77
2023-01-19T08:18:51.703Z,85.00
2023-01-19T08:21:19.234Z,83.13
2023-01-19T08:23:53.256Z,83.95
2023-01-19T08:26:23.870Z,84.60
2023-01-19T08:28:51.446Z,83.21
2023-01-19T08:31:23.024Z,85.06
2023-01-19T08:33:51.860Z,84.88
2023-01-19T08:36:19.388Z,84.06
2023-01-19T08:38:47.241Z,84.75
2023-01-19T08:41:16.467Z,84.84
2023-01-19T08:43:44.583Z,84.63
2023-01-19T08:46:12.331Z,83.60
2023-01-19T08:48:41.157Z,84.08
2023-01-19T08:51:08.921Z,84.33
2023-01-19T08:53:36.388Z,84.23
2023-01-19T08:56:03.903Z,83.43
2023-01-19T08:58:31.423Z,83.49
2023-01-19T09:01:03.014Z,84.91
2023-01-19T09:03:31.307Z,84.01
2023-01-19T09:06:00.098Z,83.09
2023-01-19T09:08:27.920Z,84.10
2023-01-19T09:10:55.506Z,83.45
2023-01-19T09:13:22.987Z,82.37
2023-01-19T09:15:50.587Z,84.07
2023-01-19T09:18:20.064Z,83.92
2023-01-19T09:20:49.297Z,84.56
2023-01-19T09:23:20.386Z,83.91
2023-01-19T09:25:48.489Z,83.08
2023-01-19T09:28:17.595Z,81.29
2023-01-19T09:30:45.532Z,81.52
2023-01-19T09:33:16.319Z,84.21
2023-01-19T09:35:45.708Z,83.36
2023-01-19T09:38:17.479Z,83.73
2023-01-19T09:40:49.570Z,83.08
2023-01-19T09:43:22.649Z,83.67
2023-01-19T09:45:53.481Z,83.75
2023-01-19T09:48:30.282Z,81.35
2023-01-19T09:51:01.755Z,82.80
2023-01-19T09:53:41.954Z,82.92
2023-01-19T09:56:13.746Z,83.60
2023-01-19T09:58:41.795Z,82.07
2023-01-19T10:01:21.078Z,82.57
2023-01-19T10:03:51.016Z,83.52
2023-01-19T10:06:18.897Z,82.05
2023-01-19T10:08:53.112Z,82.73
2023-01-19T10:11:38.102Z,82.94
2023-01-19T10:14:14.734Z,83.17
2023-01-19T10:16:50.160Z,82.78
2023-01-19T10:19:23.402Z,82.46
2023-01-19T10:21:51.685Z,80.28
2023-01-19T10:24:22.374Z,82.85
2023-01-19T10:26:52.849Z,79.29
2023-01-19T10:29:23.951Z,81.77
2023-01-19T10:31:53.473Z,82.96
2023-01-19T10:34:23.723Z,82.51
2023-01-19T10:36:58.568Z,83.08
2023-01-19T10:39:26.106Z,82.32
2023-01-19T10:41:55.003Z,79.49
2023-01-19T10:44:26.889Z,82.90
2023-01-19T10:46:55.893Z,84.05
2023-01-19T10:49:26.722Z,82.79
2023-01-19T10:51:55.359Z,80.87
2023-01-19T10:54:23.246Z,82.11
2023-01-19T10:56:57.242Z,81.98
2023-01-19T10:59:35.792Z,80.24
2023-01-19T11:02:20.250Z,79.22
2023-01-19T11:04:50.213Z,80.08
2023-01-19T11:07:21.211Z,79.00
2023-01-19T11:09:49.411Z,81.82
2023-01-19T11:12:20.537Z,81.33
2023-01-19T11:14:48.868Z,81.06
2023-01-19T11:17:25.156Z,80.62
2023-01-19T11:19:57.732Z,80.20
2023-01-19T11:22:28.661Z,80.83
2023-01-19T11:25:00.516Z,81.63
2023-01-19T11:27:32.188Z,80.70
2023-01-19T11:30:10.336Z,80.83
2023-01-19T11:32:38.413Z,79.89
2023-01-19T11:35:31.469Z,81.73
2023-01-19T11:38:07.427Z,80.91
2023-01-19T11:40:36.347Z,80.73
2023-01-19T11:43:05.792Z,81.53
2023-01-19T11:45:35.073Z,81.17
2023-01-19T11:48:05.620Z,79.63
2023-01-19T11:50:36.190Z,81.08
2023-01-19T11:53:07.441Z,81.22
2023-01-19T11:55:38.101Z,81.40
2023-01-19T11:58:07.039Z,82.20
2023-01-19T12:00:37.641Z,82.70
2023-01-19T12:03:11.867Z,81.96
2023-01-19T12:05:42.367Z,82.93
2023-01-19T12:08:14.424Z,83.14
2023-01-19T12:10:45.271Z,82.08
2023-01-19T12:13:20.666Z,82.82
2023-01-19T12:15:49.028Z,82.51
2023-01-19T12:18:20.529Z,82.84
2023-01-19T12:20:50.302Z,83.15
2023-01-19T12:23:26.044Z,83.76
2023-01-19T12:26:02.206Z,83.14
2023-01-19T12:28:33.362Z,82.22
2023-01-19T12:31:01.968Z,81.89
2023-01-19T12:33:37.490Z,83.89
2023-01-19T12:36:07.783Z,83.04
2023-01-19T12:38:45.921Z,83.62
2023-01-19T12:41:21.488Z,81.77
2023-01-19T12:44:21.622Z,83.56
2023-01-19T12:46:51.063Z,83.16
2023-01-19T12:49:24.808Z,82.48
2023-01-19T12:51:55.086Z,82.73
2023-01-19T12:54:27.581Z,82.59
2023-01-19T12:56:59.234Z,82.33
2023-01-19T12:59:29.339Z,82.92
2023-01-19T13:02:33.779Z,81.86
2023-01-19T13:05:15.721Z,81.86
2023-01-19T13:08:16.012Z,83.02
2023-01-19T13:11:14.168Z,81.30
2023-01-19T13:13:43.829Z,82.69
2023-01-19T13:16:55.961Z,81.71
2023-01-19T13:19:32.415Z,82.42
2023-01-19T13:21:59.984Z,81.40
2023-01-19T13:25:06.570Z,80.57
2023-01-19T13:27:35.659Z,82.00
2023-01-19T13:30:03.261Z,81.82
2023-01-19T13:32:31.215Z,82.28
2023-01-19T13:35:02.076Z,81.60
2023-01-19T13:37:36.481Z,82.32
2023-01-19T13:40:04.759Z,80.23
2023-01-19T13:42:35.321Z,82.29
2023-01-19T13:45:05.428Z,81.37
2023-01-19T13:47:45.361Z,82.86
2023-01-19T13:50:22.038Z,82.23
2023-01-19T13:52:51.355Z,82.19
2023-01-19T13:55:20.658Z,81.96
2023-01-19T13:57:49.595Z,82.67
2023-01-19T14:00:19.337Z,82.54
2023-01-19T14:02:59.018Z,81.09
2023-01-19T14:05:30.172Z,81.70
2023-01-19T14:08:06.096Z,82.01
2023-01-19T14:10:34.307Z,82.22
2023-01-19T14:13:03.847Z,81.24
2023-01-19T14:15:34.235Z,82.93
2023-01-19T14:18:30.040Z,82.32
2023-01-19T14:21:04.027Z,81.84
2023-01-19T14:23:44.550Z,82.40
2023-01-19T14:26:41.716Z,82.11
2023-01-19T14:29:20.433Z,82.48
2023-01-19T14:31:49.917Z,82.69
2023-01-19T14:34:31.624Z,82.44
2023-01-19T14:37:01.307Z,82.83
2023-01-19T14:39:30.589Z,82.99
2023-01-19T14:42:00.042Z,82.60
2023-01-19T14:44:30.015Z,82.28
2023-01-19T14:46:59.449Z,83.72
2023-01-19T14:49:33.569Z,83.92
2023-01-19T14:52:04.655Z,83.28
2023-01-19T14:54:36.126Z,82.73
2023-01-19T14:57:03.886Z,82.92
2023-01-19T14:59:31.493Z,84.95
2023-01-19T15:02:00.846Z,84.16
2023-01-19T15:04:28.613Z,84.28
2023-01-19T15:06:56.512Z,83.56
2023-01-19T15:09:25.437Z,84.37
2023-01-19T15:11:53.771Z,84.09
2023-01-19T15:14:21.975Z,84.11
2023-01-19T15:16:50.087Z,84.17
2023-01-19T15:19:18.618Z,84.70
2023-01-19T15:21:46.943Z,84.38
2023-01-19T15:24:17.582Z,83.94
2023-01-19T15:26:46.705Z,84.33
2023-01-19T15:29:24.828Z,85.55
2023-01-19T15:31:53.073Z,87.69
2023-01-19T15:34:20.593Z,86.23
2023-01-19T15:36:48.104Z,85.86
2023-01-19T15:39:15.571Z,88.03
2023-01-19T15:41:43.067Z,86.19
2023-01-19T15:44:11.916Z,86.76
2023-01-19T15:46:39.715Z,87.06
2023-01-19T15:49:07.212Z,86.72
2023-01-19T15:51:34.698Z,87.55
2023-01-19T15:54:02.159Z,87.37
2023-01-19T15:56:31.471Z,87.82
2023-01-19T15:58:59.760Z,89.64
2023-01-19T16:01:31.630Z,90.86
2023-01-19T16:04:01.153Z,91.50
2023-01-19T16:06:28.762Z,90.94
2023-01-19T16:09:01.036Z,89.92
2023-01-19T16:11:28.986Z,89.94
2023-01-19T16:13:56.533Z,90.77
2023-01-19T16:16:25.831Z,89.32
2023-01-19T16:18:54.710Z,89.40
2023-01-19T16:21:22.533Z,89.49
2023-01-19T16:23:50.081Z,88.81
2023-01-19T16:26:27.630Z,89.05
2023-01-19T16:28:57.653Z,88.72
2023-01-19T16:31:25.873Z,90.09
2023-01-19T16:33:54.676Z,89.38
2023-01-19T16:36:24.834Z,88.57
2023-01-19T16:38:52.390Z,90.26
2023-01-19T16:41:20.099Z,88.15
2023-01-19T16:43:51.911Z,88.31
2023-01-19T16:46:21.922Z,88.79
2023-01-19T16:48:49.585Z,88.87
2023-01-19T16:51:18.744Z,88.51
2023-01-19T16:53:46.407Z,88.70
2023-01-19T16:56:15.202Z,89.43
2023-01-19T16:58:43.081Z,89.47
2023-01-19T17:01:13.451Z,88.81
2023-01-19T17:03:41.594Z,88.76
2023-01-19T17:06:10.558Z,88.44
2023-01-19T17:08:40.564Z,87.89
2023-01-19T17:11:12.855Z,89.27
2023-01-19T17:13:40.760Z,89.83
2023-01-19T17:16:08.992Z,89.71
2023-01-19T17:18:37.841Z,90.22
2023-01-19T17:21:07.573Z,88.80
2023-01-19T17:23:36.140Z,90.08
2023-01-19T17:26:05.678Z,88.73
2023-01-19T17:28:33.193Z,89.33
2023-01-19T17:31:06.115Z,88.76
2023-01-19T17:33:33.970Z,88.18
2023-01-19T17:36:04.106Z,88.23
2023-01-19T17:38:31.589Z,90.04
2023-01-19T17:40:59.286Z,89.28
2023-01-19T17:43:28.172Z,90.71
2023-01-19T17:45:55.683Z,90.51
2023-01-19T17:48:23.459Z,89.45
2023-01-19T17:50:51.163Z,89.29
2023-01-19T17:53:18.788Z,90.03
2023-01-19T17:55:46.281Z,90.43
2023-01-19T17:58:13.800Z,90.51
2023-01-19T18:00:42.625Z,91.95
2023-01-19T18:03:10.169Z,91.66
2023-01-19T18:05:37.632Z,91.66
2023-01-19T18:08:05.483Z,90.28
2023-01-19T18:10:33.290Z,89.88
2023-01-19T18:13:00.801Z,89.24
2023-01-19T18:15:28.344Z,88.96
2023-01-19T18:17:57.153Z,89.45
2023-01-19T18:20:24.648Z,90.31
2023-01-19T18:22:52.383Z,89.97
2023-01-19T18:25:19.873Z,89.50
2023-01-19T18:27:47.355Z,89.48
2023-01-19T18:30:16.011Z,89.52
2023-01-19T18:32:43.479Z,89.21
2023-01-19T18:35:12.262Z,88.93
2023-01-19T18:37:39.751Z,89.06
2023-01-19T18:40:08.336Z,89.85
2023-01-19T18:42:36.121Z,87.87
2023-01-19T18:45:03.774Z,88.81
2023-01-19T18:47:33.758Z,87.88
2023-01-19T18:50:01.221Z,88.40
2023-01-19T18:52:32.214Z,88.34
2023-01-19T18:54:59.721Z,87.25
2023-01-19T18:57:27.225Z,87.64
2023-01-19T18:59:54.713Z,88.64
2023-01-19T19:02:22.223Z,88.75
2023-01-19T19:04:49.696Z,88.82
2023-01-19T19:07:17.181Z,89.78
2023-01-19T19:09:46.266Z,90.96
2023-01-19T19:12:13.772Z,89.97
2023-01-19T19:14:41.274Z,91.14
2023-01-19T19:17:08.760Z,90.24
2023-01-19T19:19:36.327Z,91.07
2023-01-19T19:22:03.864Z,90.83
2023-01-19T19:24:31.611Z,91.62
2023-01-19T19:27:00.418Z,89.63
2023-01-19T19:29:28.375Z,89.19
2023-01-19T19:31:56.839Z,89.17
2023-01-19T19:34:25.098Z,88.10
2023-01-19T19:36:52.588Z,88.93
2023-01-19T19:39:20.056Z,89.05
2023-01-19T19:41:47.557Z,90.29
2023-01-19T19:44:16.557Z,91.11
2023-01-19T19:46:44.319Z,90.64
2023-01-19T19:49:11.865Z,89.02
2023-01-19T19:51:39.410Z,90.30
2023-01-19T19:54:06.900Z,90.41
2023-01-19T19:56:34.799Z,90.24
2023-01-19T19:59:02.315Z,89.74
2023-01-19T20:01:33.489Z,90.89
2023-01-19T20:04:06.261Z,91.83
2023-01-19T20:06:38.506Z,90.70
2023-01-19T20:09:07.310Z,92.05
2023-01-19T20:11:34.838Z,91.02
2023-01-19T20:14:05.913Z,92.86
2023-01-19T20:16:35.044Z,91.65
2023-01-19T20:19:02.861Z,92.49
2023-01-19T20:21:32.078Z,91.58
2023-01-19T20:24:01.486Z,92.29
2023-01-19T20:26:30.632Z,92.56
2023-01-19T20:29:00.555Z,92.59
2023-01-19T20:31:30.150Z,93.33
2023-01-19T20:34:00.715Z,92.97
2023-01-19T20:36:28.997Z,91.18
2023-01-19T20:38:57.121Z,90.48
2023-01-19T20:41:25.461Z,89.87
2023-01-19T20:43:53.042Z,90.90
2023-01-19T20:46:20.612Z,91.89
2023-01-19T20:48:52.836Z,91.37
2023-01-19T20:51:22.993Z,91.98
2023-01-19T20:53:50.542Z,92.74
2023-01-19T20:56:18.033Z,93.54
2023-01-19T20:58:45.568Z,93.48
2023-01-19T21:01:14.846Z,93.01
2023-01-19T21:03:42.814Z,92.33
2023-01-19T21:06:12.114Z,93.12
2023-01-19T21:08:41.015Z,93.46
2023-01-19T21:11:09.005Z,92.67
2023-01-19T21:13:36.711Z,93.07
2023-01-19T21:16:04.968Z,93.03
2023-01-19T21:18:32.506Z,92.86
2023-01-19T21:20:59.985Z,93.60
2023-01-19T21:23:28.079Z,93.43
2023-01-19T21:25:58.107Z,93.53
2023-01-19T21:28:26.080Z,91.53
2023-01-19T21:31:00.789Z,92.90
2023-01-19T21:33:28.279Z,93.14
2023-01-19T21:35:57.229Z,93.60
2023-01-19T21:38:26.744Z,91.34
2023-01-19T21:40:54.732Z,91.57
2023-01-19T21:43:23.811Z,92.90
2023-01-19T21:45:51.694Z,91.85
2023-01-19T21:48:19.689Z,90.99
2023-01-19T21:50:47.214Z,90.90
2023-01-19T21:53:14.719Z,91.05
2023-01-19T21:55:44.747Z,90.53
2023-01-19T21:58:12.218Z,91.02
2023-01-19T22:00:41.158Z,90.19
2023-01-19T22:03:08.898Z,90.91
2023-01-19T22:05:37.194Z,90.87
2023-01-19T22:08:05.066Z,91.31
2023-01-19T22:10:32.793Z,90.77
2023-01-19T22:13:00.281Z,90.70
2023-01-19T22:15:27.763Z,90.54
2023-01-19T22:17:56.757Z,90.71
2023-01-19T22:20:24.221Z,90.68
2023-01-19T22:22:51.776Z,90.85
2023-01-19T22:25:21.978Z,90.63
2023-01-19T22:27:49.463Z,91.38
2023-01-19T22:30:17.952Z,91.34
2023-01-19T22:32:45.657Z,91.47
2023-01-19T22:35:15.369Z,91.71
2023-01-19T22:37:43.441Z,91.90
2023-01-19T22:40:12.522Z,92.34
2023-01-19T22:42:40.189Z,92.88
2023-01-19T22:45:09.261Z,93.12
2023-01-19T22:47:37.052Z,93.45
2023-01-19T22:50:04.947Z,92.47
2023-01-19T22:52:33.993Z,91.87
2023-01-19T22:55:01.598Z,92.57
2023-01-19T22:57:34.220Z,93.05
2023-01-19T23:00:01.886Z,93.05
2023-01-19T23:02:29.462Z,92.04
2023-01-19T23:04:56.937Z,92.20
2023-01-19T23:07:24.510Z,91.53
2023-01-19T23:09:53.286Z,92.82
2023-01-19T23:12:21.062Z,92.67
2023-01-19T23:14:49.077Z,92.57
2023-01-19T23:17:16.562Z,92.87
2023-01-19T23:19:44.013Z,92.24
2023-01-19T23:22:11.509Z,93.51
2023-01-19T23:24:39.267Z,93.20
2023-01-19T23:27:08.366Z,93.29
2023-01-19T23:29:36.278Z,93.67
2023-01-19T23:32:03.990Z,93.53
2023-01-19T23:34:31.437Z,93.78
2023-01-19T23:36:58.921Z,92.91
2023-01-19T23:39:26.594Z,92.90
2023-01-19T23:41:54.087Z,93.22
2023-01-19T23:44:22.941Z,93.19
2023-01-19T23:46:50.483Z,91.98
2023-01-19T23:49:18.129Z,92.39
2023-01-19T23:51:45.650Z,92.91
2023-01-19T23:54:13.133Z,93.24
2023-01-19T23:56:42.522Z,93.07
2023-01-19T23:59:11.473Z,93.19
